Time;durP1;ratioP1;P1;durP2;ratioP2;P2;SDS_P1;SDS_P2;PMS_P1;PMS_P2;Temp;Humidity;BMP_temperature;BMP_pressure;BME280_temperature;BME280_humidity;BME280_pressure;Samples;Min_cycle;Max_cycle;Signal;HPM_P1;HPM_P2
2023/01/09 00:01:14;;;;;;;;;;;8.50;96.80;;;;;;5015272;28;19959;-87
2023/01/09 00:03:40;;;;;;;;;;;8.50;96.80;;;;;;5015245;28;20442;-87
2023/01/09 00:06:05;;;;;;;;;;;8.50;96.90;;;;;;5015154;28;19942;-87
2023/01/09 00:08:31;;;;;;;;;;;8.50;96.90;;;;;;5015208;28;19946;-87
2023/01/09 00:10:56;;;;;;;;;;;8.60;96.90;;;;;;5015121;28;19940;-87
2023/01/09 00:13:22;;;;;;;;;;;8.60;96.90;;;;;;5015143;28;19936;-87
2023/01/09 00:15:47;;;;;;;;;;;8.60;96.80;;;;;;5014853;28;20350;-87
2023/01/09 00:18:13;;;;;;;;;;;8.80;96.60;;;;;;5014994;28;19939;-87
2023/01/09 00:20:39;;;;;;;;;;;8.80;96.50;;;;;;5014862;28;20050;-87
2023/01/09 00:23:04;;;;;;;;;;;8.80;96.40;;;;;;5014918;28;19948;-87
2023/01/09 00:25:30;;;;;;;;;;;8.80;96.40;;;;;;5014826;28;20041;-88
2023/01/09 00:27:55;;;;;;;;;;;8.90;96.30;;;;;;5014821;28;20005;-87
2023/01/09 00:30:21;;;;;;;;;;;8.90;96.30;;;;;;5014734;28;20466;-87
2023/01/09 00:32:46;;;;;;;;;;;8.90;96.40;;;;;;5013452;28;19946;-87
2023/01/09 00:35:13;;;;;;;;;;;9.00;96.40;;;;;;5014663;28;19944;-87
2023/01/09 00:37:39;;;;;;;;;;;9.00;96.30;;;;;;5014618;28;19942;-87
2023/01/09 00:40:05;;;;;;;;;;;9.10;96.30;;;;;;5014224;28;20014;-87
2023/01/09 00:42:32;;;;;;;;;;;9.10;96.30;;;;;;5014197;28;20484;-88
2023/01/09 00:45:00;;;;;;;;;;;9.20;96.30;;;;;;5014490;28;19981;-87
2023/01/09 00:47:28;;;;;;;;;;;9.30;96.30;;;;;;5014478;28;19986;-87
2023/01/09 00:49:54;;;;;;;;;;;9.30;96.10;;;;;;5014440;28;19946;-87
2023/01/09 00:52:20;;;;;;;;;;;9.30;96.10;;;;;;5014271;28;20056;-88
2023/01/09 00:54:46;;;;;;;;;;;9.40;96.10;;;;;;5014192;28;19989;-88
2023/01/09 00:57:12;;;;;;;;;;;9.40;96.10;;;;;;5014313;28;19937;-87
2023/01/09 00:59:38;;;;;;;;;;;9.40;96.10;;;;;;5014165;28;20464;-87
2023/01/09 01:02:04;;;;;;;;;;;9.40;96.10;;;;;;5014202;28;20057;-87
2023/01/09 01:09:58;;;;;;;;;;;9.50;96.10;;;;;;5014075;28;19962;-88
2023/01/09 01:12:23;;;;;;;;;;;9.60;96.10;;;;;;5013953;28;20317;-88
2023/01/09 01:14:49;;;;;;;;;;;9.60;96.10;;;;;;5013797;28;19951;-88
2023/01/09 01:17:14;;;;;;;;;;;9.60;95.90;;;;;;5013980;28;19945;-88
2023/01/09 01:19:40;;;;;;;;;;;9.60;95.90;;;;;;5013812;28;19962;-87
2023/01/09 01:22:05;;;;;;;;;;;9.70;95.70;;;;;;5013844;28;19984;-88
2023/01/09 01:24:31;;;;;;;;;;;9.70;95.50;;;;;;5013819;28;20008;-88
2023/01/09 01:26:56;;;;;;;;;;;9.60;95.50;;;;;;5013797;28;20433;-87
2023/01/09 01:29:22;;;;;;;;;;;9.60;95.50;;;;;;5013735;28;20399;-87
2023/01/09 01:31:47;;;;;;;;;;;9.70;95.60;;;;;;5013686;28;19947;-87
2023/01/09 01:34:13;;;;;;;;;;;9.60;95.70;;;;;;5013678;28;19939;-87
2023/01/09 01:36:38;;;;;;;;;;;9.60;95.80;;;;;;5013656;28;19936;-87
2023/01/09 01:39:04;;;;;;;;;;;9.60;95.90;;;;;;5013620;28;19937;-87
2023/01/09 01:41:29;;;;;;;;;;;9.60;96.00;;;;;;5013476;28;20404;-87
2023/01/09 01:43:56;;;;;;;;;;;9.60;96.10;;;;;;5013580;28;19942;-87
2023/01/09 01:46:22;;;;;;;;;;;9.60;96.20;;;;;;5013568;28;19986;-87
2023/01/09 01:48:51;;;;;;;;;;;9.60;96.30;;;;;;5013504;28;19993;-87
2023/01/09 01:51:18;;;;;;;;;;;9.70;96.40;;;;;;5013427;28;19945;-87
2023/01/09 01:53:49;;;;;;;;;;;9.80;96.40;;;;;;5013360;28;20002;-87
2023/01/09 01:56:23;;;;;;;;;;;9.80;96.40;;;;;;5013360;28;19939;-87
2023/01/09 01:58:51;;;;;;;;;;;9.90;96.50;;;;;;5013401;28;20080;-87
2023/01/09 02:01:18;;;;;;;;;;;10.10;96.20;;;;;;5013263;28;19965;-87
2023/01/09 02:03:43;;;;;;;;;;;10.00;95.80;;;;;;5013362;28;19963;-87
2023/01/09 02:06:10;;;;;;;;;;;10.10;95.60;;;;;;5013323;28;20381;-87
2023/01/09 02:08:35;;;;;;;;;;;10.00;95.40;;;;;;5013288;28;19946;-87
2023/01/09 02:11:02;;;;;;;;;;;10.00;95.40;;;;;;5013228;28;19943;-87
2023/01/09 02:13:28;;;;;;;;;;;10.00;95.50;;;;;;5013264;28;20024;-87
2023/01/09 02:16:00;;;;;;;;;;;10.00;95.60;;;;;;5013103;28;20021;-87
2023/01/09 02:18:33;;;;;;;;;;;10.10;95.80;;;;;;5013237;28;19949;-87
2023/01/09 02:21:01;;;;;;;;;;;10.20;95.70;;;;;;5013050;28;19996;-87
2023/01/09 02:23:45;;;;;;;;;;;10.30;95.50;;;;;;5013156;28;20034;-87
2023/01/09 02:26:17;;;;;;;;;;;10.30;95.50;;;;;;5013124;28;20308;-87
2023/01/09 02:29:04;;;;;;;;;;;10.20;95.10;;;;;;5013067;28;19940;-87
2023/01/09 02:31:32;;;;;;;;;;;10.20;95.20;;;;;;5013047;28;19942;-87
2023/01/09 02:34:09;;;;;;;;;;;10.10;95.20;;;;;;5012985;28;20420;-87
2023/01/09 02:36:37;;;;;;;;;;;10.10;95.20;;;;;;5013012;28;19989;-87
2023/01/09 02:39:03;;;;;;;;;;;10.10;95.00;;;;;;5012981;28;19985;-87
2023/01/09 02:41:48;;;;;;;;;;;10.20;94.90;;;;;;5012886;28;19960;-87
2023/01/09 02:44:15;;;;;;;;;;;10.20;94.40;;;;;;4998966;28;19991;-87
2023/01/09 02:46:41;;;;;;;;;;;10.10;94.40;;;;;;5012925;28;19940;-87
2023/01/09 02:49:07;;;;;;;;;;;10.00;94.40;;;;;;5012854;28;19947;-88
2023/01/09 02:51:32;;;;;;;;;;;9.90;94.70;;;;;;5012865;28;19949;-87
2023/01/09 02:53:58;;;;;;;;;;;9.90;94.70;;;;;;5012729;28;20005;-87
2023/01/09 02:56:29;;;;;;;;;;;9.80;94.90;;;;;;5012796;28;19937;-87
2023/01/09 02:59:13;;;;;;;;;;;9.90;95.10;;;;;;5012814;28;19990;-87
2023/01/09 03:01:57;;;;;;;;;;;9.90;95.00;;;;;;5012738;28;19957;-87
2023/01/09 03:04:33;;;;;;;;;;;9.90;95.00;;;;;;5014252;28;19941;-87
2023/01/09 03:06:59;;;;;;;;;;;9.90;95.00;;;;;;5016336;28;20390;-87
2023/01/09 03:09:26;;;;;;;;;;;9.90;94.90;;;;;;5016350;28;19943;-87
2023/01/09 03:11:56;;;;;;;;;;;9.90;95.00;;;;;;5016314;28;20037;-87
2023/01/09 03:14:24;;;;;;;;;;;9.90;95.20;;;;;;5016229;28;19938;-87
2023/01/09 03:16:51;;;;;;;;;;;9.90;95.30;;;;;;5023549;22;19978;-87
2023/01/09 03:19:19;;;;;;;;;;;9.90;95.40;;;;;;5016088;28;20419;-87
2023/01/09 03:21:46;;;;;;;;;;;9.90;95.30;;;;;;5016119;28;19943;-87
2023/01/09 03:24:13;;;;;;;;;;;9.90;95.30;;;;;;5015584;28;20269;-87
2023/01/09 03:26:39;;;;;;;;;;;10.10;94.70;;;;;;5016069;28;20293;-87
2023/01/09 03:29:05;;;;;;;;;;;10.10;94.30;;;;;;5015894;28;20463;-87
2023/01/09 03:31:30;;;;;;;;;;;10.10;94.40;;;;;;5015964;28;19945;-87
2023/01/09 03:33:56;;;;;;;;;;;10.00;94.40;;;;;;5015905;28;20419;-87
2023/01/09 03:36:22;;;;;;;;;;;10.00;94.40;;;;;;5015817;28;19985;-87
2023/01/09 03:38:48;;;;;;;;;;;9.90;94.80;;;;;;5015765;28;19948;-87
2023/01/09 03:41:13;;;;;;;;;;;9.90;95.20;;;;;;5015685;28;19985;-87
2023/01/09 03:43:39;;;;;;;;;;;9.90;95.20;;;;;;5015694;28;19938;-87
2023/01/09 03:46:04;;;;;;;;;;;10.00;95.30;;;;;;5015667;28;19941;-87
2023/01/09 03:48:30;;;;;;;;;;;10.10;95.30;;;;;;5015579;28;19939;-87
2023/01/09 03:50:55;;;;;;;;;;;10.10;95.00;;;;;;5015581;28;19937;-87
2023/01/09 03:53:22;;;;;;;;;;;10.10;95.20;;;;;;5015433;28;19978;-87
2023/01/09 03:55:49;;;;;;;;;;;10.20;95.00;;;;;;5015321;28;20415;-87
2023/01/09 03:58:15;;;;;;;;;;;10.20;95.00;;;;;;5015362;28;20403;-87
2023/01/09 04:00:41;;;;;;;;;;;10.10;95.00;;;;;;5015303;28;19962;-87
2023/01/09 04:03:07;;;;;;;;;;;10.20;94.80;;;;;;5015353;28;19947;-87
2023/01/09 04:05:33;;;;;;;;;;;10.30;94.00;;;;;;5015084;28;19937;-87
2023/01/09 04:07:59;;;;;;;;;;;10.30;93.90;;;;;;5015112;28;20038;-87
2023/01/09 04:10:24;;;;;;;;;;;10.20;93.90;;;;;;5015138;28;19946;-87
2023/01/09 04:12:50;;;;;;;;;;;10.20;94.10;;;;;;5015108;28;19943;-87
2023/01/09 04:15:15;;;;;;;;;;;10.20;94.30;;;;;;5014074;28;19976;-87
2023/01/09 04:17:41;;;;;;;;;;;10.40;94.30;;;;;;5014854;28;19952;-86
2023/01/09 04:20:07;;;;;;;;;;;10.40;94.10;;;;;;5014896;28;19973;-87
2023/01/09 04:22:33;;;;;;;;;;;10.60;93.90;;;;;;5014740;28;20451;-86
2023/01/09 04:24:58;;;;;;;;;;;10.70;93.50;;;;;;5014848;28;19943;-87
2023/01/09 04:27:24;;;;;;;;;;;10.50;93.10;;;;;;5014631;28;19989;-87
2023/01/09 04:29:49;;;;;;;;;;;10.60;93.40;;;;;;5014599;28;19937;-87
2023/01/09 04:32:15;;;;;;;;;;;10.70;93.30;;;;;;5014761;28;20027;-87
2023/01/09 04:34:40;;;;;;;;;;;10.70;93.20;;;;;;5014379;28;19983;-87
2023/01/09 04:37:06;;;;;;;;;;;10.70;93.20;;;;;;5014881;28;19943;-87
2023/01/09 04:39:31;;;;;;;;;;;10.70;93.20;;;;;;5014451;28;19935;-87
2023/01/09 04:41:57;;;;;;;;;;;10.70;93.30;;;;;;5014575;28;20037;-86
2023/01/09 04:44:26;;;;;;;;;;;10.60;93.10;;;;;;5014530;28;19996;-87
2023/01/09 04:46:52;;;;;;;;;;;10.40;93.40;;;;;;5014555;28;19945;-87
2023/01/09 04:49:18;;;;;;;;;;;10.10;94.00;;;;;;5013207;28;19951;-87
2023/01/09 04:51:44;;;;;;;;;;;9.90;94.60;;;;;;5014377;28;19933;-87
2023/01/09 04:54:09;;;;;;;;;;;9.80;94.90;;;;;;5014180;28;19955;-87
2023/01/09 04:56:35;;;;;;;;;;;10.00;94.80;;;;;;5014541;28;20022;-87
2023/01/09 04:59:01;;;;;;;;;;;10.10;94.60;;;;;;5014293;28;20388;-87
2023/01/09 05:01:27;;;;;;;;;;;10.20;94.30;;;;;;5014192;28;20010;-87
2023/01/09 05:03:52;;;;;;;;;;;10.30;94.20;;;;;;5014196;28;19943;-87
2023/01/09 05:06:18;;;;;;;;;;;10.30;93.90;;;;;;5014192;28;19966;-87
2023/01/09 05:08:44;;;;;;;;;;;10.20;93.30;;;;;;5014150;28;19984;-87
2023/01/09 05:11:09;;;;;;;;;;;10.10;93.60;;;;;;5014101;28;19939;-87
2023/01/09 05:13:35;;;;;;;;;;;10.20;93.60;;;;;;5013955;28;19943;-87
2023/01/09 05:16:00;;;;;;;;;;;10.20;93.50;;;;;;5013870;28;19972;-87
2023/01/09 05:18:26;;;;;;;;;;;10.20;93.30;;;;;;5013946;28;19971;-87
2023/01/09 05:20:51;;;;;;;;;;;10.20;93.30;;;;;;5013807;28;19962;-87
2023/01/09 05:23:17;;;;;;;;;;;10.10;93.30;;;;;;5013828;28;20533;-87
2023/01/09 05:25:42;;;;;;;;;;;10.00;93.40;;;;;;5013875;28;20032;-87
2023/01/09 05:28:08;;;;;;;;;;;9.90;93.60;;;;;;5013596;28;19976;-87
2023/01/09 05:30:33;;;;;;;;;;;9.60;94.30;;;;;;5013693;28;19939;-87
2023/01/09 05:32:59;;;;;;;;;;;9.70;94.50;;;;;;5013130;28;19953;-87
2023/01/09 05:35:24;;;;;;;;;;;9.70;94.50;;;;;;5013646;28;19980;-87
2023/01/09 05:37:50;;;;;;;;;;;9.60;94.50;;;;;;5013695;28;20033;-87
2023/01/09 05:40:15;;;;;;;;;;;9.60;94.60;;;;;;5013513;28;20310;-87
2023/01/09 05:42:42;;;;;;;;;;;9.60;94.60;;;;;;5013570;28;19937;-87
2023/01/09 05:45:07;;;;;;;;;;;9.70;94.70;;;;;;5013556;28;19942;-87
2023/01/09 05:47:33;;;;;;;;;;;9.70;94.70;;;;;;5013560;28;20362;-87
2023/01/09 05:49:59;;;;;;;;;;;9.60;94.70;;;;;;5013469;28;19988;-87
2023/01/09 05:52:24;;;;;;;;;;;9.60;94.50;;;;;;5013667;28;19968;-87
2023/01/09 05:54:50;;;;;;;;;;;9.50;94.30;;;;;;5013333;28;20002;-87
2023/01/09 05:57:15;;;;;;;;;;;9.40;94.00;;;;;;5013422;28;20486;-87
2023/01/09 05:59:41;;;;;;;;;;;9.30;94.60;;;;;;5011984;28;19949;-87
2023/01/09 06:02:06;;;;;;;;;;;9.20;94.80;;;;;;5012497;28;20329;-87
2023/01/09 06:04:32;;;;;;;;;;;9.20;94.60;;;;;;5012827;28;19944;-87
2023/01/09 06:06:58;;;;;;;;;;;9.10;94.70;;;;;;5012857;28;19953;-87
2023/01/09 06:09:23;;;;;;;;;;;9.10;94.70;;;;;;5012244;28;20016;-87
2023/01/09 06:11:49;;;;;;;;;;;9.10;94.60;;;;;;5012968;28;19986;-87
2023/01/09 06:14:14;;;;;;;;;;;9.00;94.80;;;;;;5013271;28;19944;-87
2023/01/09 06:16:40;;;;;;;;;;;9.20;94.80;;;;;;5012991;28;20459;-87
2023/01/09 06:19:05;;;;;;;;;;;9.30;94.40;;;;;;5012457;28;19958;-86
2023/01/09 06:21:31;;;;;;;;;;;9.50;94.00;;;;;;5012085;28;19958;-87
2023/01/09 06:23:57;;;;;;;;;;;9.60;93.70;;;;;;5012326;28;19971;-87
2023/01/09 06:26:26;;;;;;;;;;;9.60;93.40;;;;;;5010152;28;20303;-87
2023/01/09 06:28:54;;;;;;;;;;;9.40;93.50;;;;;;5010515;28;19944;-87
2023/01/09 06:31:20;;;;;;;;;;;9.40;93.60;;;;;;5010784;28;19949;-87
2023/01/09 06:33:46;;;;;;;;;;;9.40;93.70;;;;;;5001047;28;19970;-88
2023/01/09 06:36:11;;;;;;;;;;;9.20;94.10;;;;;;5008054;28;20026;-89
2023/01/09 06:38:37;;;;;;;;;;;9.30;94.20;;;;;;5010243;28;19962;-87
2023/01/09 06:41:03;;;;;;;;;;;9.20;94.10;;;;;;5010633;28;19965;-88
2023/01/09 06:43:28;;;;;;;;;;;9.20;94.00;;;;;;5009606;28;20436;-88
2023/01/09 06:45:54;;;;;;;;;;;9.20;94.00;;;;;;5014637;28;20433;-88
2023/01/09 06:48:19;;;;;;;;;;;9.20;93.90;;;;;;5015627;28;20012;-87
2023/01/09 06:50:46;;;;;;;;;;;9.30;93.90;;;;;;5016132;28;19958;-87
2023/01/09 06:53:12;;;;;;;;;;;9.30;93.80;;;;;;5014417;28;20005;-87
2023/01/09 06:55:37;;;;;;;;;;;9.40;93.70;;;;;;5014870;28;20168;-88
2023/01/09 06:58:03;;;;;;;;;;;9.40;93.50;;;;;;5012369;28;20557;-87
2023/01/09 07:00:30;;;;;;;;;;;9.40;92.90;;;;;;5008398;28;20407;-88
2023/01/09 07:02:55;;;;;;;;;;;9.30;93.10;;;;;;5011891;28;19949;-86
2023/01/09 07:05:21;;;;;;;;;;;9.30;93.00;;;;;;5004413;28;19942;-88
2023/01/09 07:07:47;;;;;;;;;;;9.40;92.90;;;;;;5012847;28;19950;-87
2023/01/09 07:10:13;;;;;;;;;;;9.40;93.00;;;;;;5012231;28;20378;-87
2023/01/09 07:12:38;;;;;;;;;;;9.40;93.20;;;;;;5010240;28;20472;-87
2023/01/09 07:15:04;;;;;;;;;;;9.30;93.50;;;;;;5009919;28;20041;-87
2023/01/09 07:17:31;;;;;;;;;;;9.30;93.60;;;;;;5009864;28;19981;-87
2023/01/09 07:19:57;;;;;;;;;;;9.20;93.70;;;;;;5008389;28;19964;-88
2023/01/09 07:22:23;;;;;;;;;;;9.20;93.80;;;;;;5011600;28;19957;-87
2023/01/09 07:24:48;;;;;;;;;;;9.20;94.00;;;;;;5010609;28;19946;-89
2023/01/09 07:27:14;;;;;;;;;;;9.30;94.10;;;;;;5005205;28;19952;-89
2023/01/09 07:29:39;;;;;;;;;;;9.40;94.00;;;;;;5008950;28;20478;-88
2023/01/09 07:32:05;;;;;;;;;;;9.30;93.20;;;;;;5011346;28;20000;-89
2023/01/09 07:34:30;;;;;;;;;;;9.40;93.20;;;;;;5002253;28;20410;-89
2023/01/09 07:36:56;;;;;;;;;;;9.50;93.20;;;;;;5007065;28;19945;-89
2023/01/09 07:39:21;;;;;;;;;;;9.50;92.40;;;;;;5010651;28;19969;-88
2023/01/09 07:41:47;;;;;;;;;;;9.50;92.40;;;;;;5010961;28;20342;-89
2023/01/09 07:44:12;;;;;;;;;;;9.60;92.30;;;;;;5007873;28;19989;-88
2023/01/09 07:46:38;;;;;;;;;;;9.70;92.20;;;;;;5011240;28;19946;-88
2023/01/09 07:49:04;;;;;;;;;;;9.80;92.00;;;;;;5010252;28;21655;-88
2023/01/09 07:51:29;;;;;;;;;;;9.80;92.00;;;;;;5009427;28;19988;-88
2023/01/09 07:53:55;;;;;;;;;;;9.80;91.90;;;;;;5009444;28;19960;-90
2023/01/09 07:56:21;;;;;;;;;;;9.80;91.90;;;;;;5009057;28;19950;-88
2023/01/09 07:58:47;;;;;;;;;;;9.70;92.30;;;;;;5013017;28;19994;-90
2023/01/09 08:01:12;;;;;;;;;;;9.70;92.30;;;;;;5008245;28;19947;-89
2023/01/09 08:03:38;;;;;;;;;;;9.50;92.30;;;;;;5009829;28;20004;-89
2023/01/09 08:06:04;;;;;;;;;;;9.50;92.60;;;;;;5005158;28;20331;-88
2023/01/09 08:08:29;;;;;;;;;;;9.70;92.80;;;;;;5009220;28;19954;-88
2023/01/09 08:10:55;;;;;;;;;;;9.70;92.70;;;;;;5007657;28;20405;-89
2023/01/09 08:13:21;;;;;;;;;;;9.90;92.80;;;;;;5005163;28;20025;-89
2023/01/09 08:15:46;;;;;;;;;;;10.10;92.70;;;;;;5006970;28;20341;-89
2023/01/09 08:18:12;;;;;;;;;;;10.10;92.20;;;;;;5007545;28;19982;-89
2023/01/09 08:20:37;;;;;;;;;;;10.00;92.30;;;;;;5010249;28;19959;-89
2023/01/09 08:23:03;;;;;;;;;;;10.10;92.60;;;;;;5008555;28;20473;-89
2023/01/09 08:25:28;;;;;;;;;;;10.40;92.40;;;;;;5006782;28;19948;-89
2023/01/09 08:27:54;;;;;;;;;;;10.60;91.30;;;;;;5009598;28;19942;-89
2023/01/09 08:30:19;;;;;;;;;;;10.50;90.40;;;;;;5004399;28;19979;-89
2023/01/09 08:32:49;;;;;;;;;;;10.50;90.60;;;;;;5008664;28;20375;-89
2023/01/09 08:35:14;;;;;;;;;;;10.40;90.80;;;;;;5011039;28;20004;-89
2023/01/09 08:37:42;;;;;;;;;;;10.20;91.50;;;;;;5008776;28;20012;-89
2023/01/09 08:40:08;;;;;;;;;;;10.20;92.00;;;;;;5012419;28;20399;-88
2023/01/09 08:48:01;;;;;;;;;;;10.40;92.50;;;;;;5009256;28;19996;-88
2023/01/09 08:50:27;;;;;;;;;;;10.50;91.80;;;;;;5004391;28;19963;-89
2023/01/09 08:52:52;;;;;;;;;;;10.60;91.70;;;;;;5007161;28;20021;-88
2023/01/09 08:55:18;;;;;;;;;;;10.70;91.10;;;;;;5009374;28;20387;-89
2023/01/09 08:57:48;;;;;;;;;;;10.70;90.60;;;;;;5004463;28;19945;-88
2023/01/09 09:00:13;;;;;;;;;;;10.50;91.10;;;;;;5005935;28;19993;-89
2023/01/09 09:02:39;;;;;;;;;;;10.40;91.50;;;;;;5008074;28;19942;-89
2023/01/09 09:05:05;;;;;;;;;;;10.40;91.90;;;;;;5006116;28;20390;-88
2023/01/09 09:07:30;;;;;;;;;;;10.40;92.30;;;;;;5003166;28;19993;-87
2023/01/09 09:09:56;;;;;;;;;;;10.40;92.60;;;;;;5010334;28;20554;-88
2023/01/09 09:12:22;;;;;;;;;;;10.20;92.90;;;;;;5007024;28;19986;-88
2023/01/09 09:17:32;;;;;;;;;;;10.10;93.20;;;;;;5011407;28;20473;-88
2023/01/09 09:19:58;;;;;;;;;;;10.10;93.50;;;;;;5005668;28;19976;-88
2023/01/09 09:22:24;;;;;;;;;;;10.10;93.60;;;;;;5006554;28;20004;-88
2023/01/09 09:24:49;;;;;;;;;;;10.10;93.60;;;;;;5007109;28;19945;-88
2023/01/09 09:27:15;;;;;;;;;;;10.10;93.70;;;;;;5007255;28;20034;-88
2023/01/09 09:29:40;;;;;;;;;;;10.10;93.90;;;;;;5006405;28;20419;-88
2023/01/09 09:32:06;;;;;;;;;;;10.10;94.00;;;;;;5005470;28;19946;-88
2023/01/09 09:34:31;;;;;;;;;;;10.10;94.00;;;;;;5004689;28;20052;-88
2023/01/09 09:36:57;;;;;;;;;;;10.10;94.10;;;;;;5005884;28;19947;-88
2023/01/09 09:39:22;;;;;;;;;;;10.10;94.20;;;;;;5008824;28;19990;-89
2023/01/09 09:45:16;;;;;;;;;;;10.00;94.30;;;;;;5001787;28;20036;-88
2023/01/09 09:47:49;;;;;;;;;;;10.10;94.50;;;;;;5010200;28;20417;-88
2023/01/09 09:50:33;;;;;;;;;;;10.10;94.40;;;;;;5006222;28;20384;-88
2023/01/09 09:53:08;;;;;;;;;;;10.20;94.50;;;;;;5004845;28;19957;-89
2023/01/09 09:55:35;;;;;;;;;;;10.40;94.40;;;;;;5008219;28;19966;-89
2023/01/09 09:58:05;;;;;;;;;;;10.40;94.20;;;;;;5006376;28;20101;-89
2023/01/09 10:00:31;;;;;;;;;;;10.40;93.80;;;;;;5006942;28;20533;-89
2023/01/09 10:02:56;;;;;;;;;;;10.40;93.90;;;;;;5006944;28;19976;-89
2023/01/09 10:05:25;;;;;;;;;;;10.40;94.10;;;;;;5005963;28;19946;-89
2023/01/09 10:07:51;;;;;;;;;;;10.40;94.10;;;;;;5006377;28;19961;-89
2023/01/09 10:10:39;;;;;;;;;;;10.40;93.80;;;;;;5002563;28;19941;-88
2023/01/09 10:16:08;;;;;;;;;;;10.60;93.60;;;;;;5010293;28;20053;-89
2023/01/09 10:18:43;;;;;;;;;;;10.80;93.60;;;;;;5015100;28;19990;-88
2023/01/09 10:21:15;;;;;;;;;;;10.90;92.80;;;;;;5012673;28;20010;-88
2023/01/09 10:23:53;;;;;;;;;;;11.00;92.80;;;;;;5007087;28;20413;-89
2023/01/09 10:26:24;;;;;;;;;;;11.00;92.70;;;;;;5007021;28;20375;-89
2023/01/09 10:28:49;;;;;;;;;;;11.00;93.00;;;;;;5007060;28;19968;-88
2023/01/09 10:31:41;;;;;;;;;;;11.00;93.10;;;;;;5011453;28;20381;-88
2023/01/09 10:34:07;;;;;;;;;;;11.00;93.50;;;;;;5008037;28;19941;-89
2023/01/09 10:36:32;;;;;;;;;;;10.90;93.70;;;;;;5010913;28;20422;-89
2023/01/09 10:39:02;;;;;;;;;;;10.80;93.60;;;;;;5010101;28;19948;-88
2023/01/09 10:41:34;;;;;;;;;;;10.80;93.50;;;;;;5009248;28;19950;-88
2023/01/09 10:44:15;;;;;;;;;;;10.80;93.90;;;;;;5007015;28;19947;-89
2023/01/09 10:46:44;;;;;;;;;;;10.90;93.60;;;;;;5005494;28;20337;-88
2023/01/09 10:49:16;;;;;;;;;;;11.00;93.70;;;;;;5006267;28;20436;-89
2023/01/09 10:51:50;;;;;;;;;;;11.10;94.10;;;;;;5013943;28;19952;-89
2023/01/09 10:54:17;;;;;;;;;;;11.10;93.20;;;;;;5007379;28;20002;-88
2023/01/09 10:57:05;;;;;;;;;;;11.10;93.10;;;;;;5010730;28;19954;-89
2023/01/09 10:59:31;;;;;;;;;;;11.00;93.30;;;;;;5011804;28;19940;-88
2023/01/09 11:01:57;;;;;;;;;;;10.90;93.10;;;;;;5006177;28;19939;-89
2023/01/09 11:04:30;;;;;;;;;;;10.80;93.10;;;;;;5012473;28;19941;-88
2023/01/09 11:06:59;;;;;;;;;;;10.80;93.50;;;;;;5009378;28;19942;-89
2023/01/09 11:09:24;;;;;;;;;;;10.80;93.70;;;;;;5012913;28;19945;-89
2023/01/09 11:11:50;;;;;;;;;;;10.80;93.60;;;;;;5012616;28;20413;-89
2023/01/09 11:14:26;;;;;;;;;;;10.80;93.50;;;;;;5016088;28;20413;-89
2023/01/09 11:16:52;;;;;;;;;;;10.90;93.70;;;;;;5057300;22;20506;-89
2023/01/09 11:19:17;;;;;;;;;;;10.90;93.80;;;;;;5055696;28;20001;-89
2023/01/09 11:21:43;;;;;;;;;;;10.90;94.00;;;;;;5055574;28;19960;-88
2023/01/09 11:24:17;;;;;;;;;;;10.90;94.10;;;;;;5055667;28;19938;-88
2023/01/09 11:26:44;;;;;;;;;;;10.80;93.80;;;;;;5055563;28;20091;-88
2023/01/09 11:29:19;;;;;;;;;;;10.70;93.80;;;;;;5055595;28;20558;-89
2023/01/09 11:31:52;;;;;;;;;;;10.60;94.00;;;;;;5055850;28;19945;-89
2023/01/09 11:34:21;;;;;;;;;;;10.60;94.10;;;;;;5055552;28;19941;-89
2023/01/09 11:36:47;;;;;;;;;;;10.40;93.50;;;;;;5055518;28;20485;-89
2023/01/09 11:39:31;;;;;;;;;;;10.20;94.10;;;;;;5055487;28;19938;-89
2023/01/09 11:42:01;;;;;;;;;;;10.10;94.30;;;;;;5054640;28;19983;-89
2023/01/09 11:44:27;;;;;;;;;;;10.00;94.40;;;;;;5055349;28;19988;-88
2023/01/09 11:46:53;;;;;;;;;;;9.90;94.30;;;;;;5055377;28;20029;-88
2023/01/09 11:49:23;;;;;;;;;;;9.80;94.20;;;;;;5055301;28;20030;-89
2023/01/09 11:52:07;;;;;;;;;;;9.70;94.30;;;;;;5055896;28;19968;-89
2023/01/09 11:54:34;;;;;;;;;;;9.70;94.50;;;;;;5057151;28;19946;-89
2023/01/09 11:57:00;;;;;;;;;;;9.70;94.40;;;;;;5075124;28;20026;-89
2023/01/09 11:59:27;;;;;;;;;;;9.70;94.40;;;;;;5075081;28;20016;-89
2023/01/09 12:01:56;;;;;;;;;;;9.70;94.50;;;;;;5074970;28;19965;-88
2023/01/09 12:04:22;;;;;;;;;;;9.70;94.30;;;;;;5074998;28;19952;-89
2023/01/09 12:07:15;;;;;;;;;;;9.70;94.10;;;;;;5075006;28;19990;-89
2023/01/09 12:09:59;;;;;;;;;;;9.70;94.20;;;;;;5060187;28;20042;-89
2023/01/09 12:12:43;;;;;;;;;;;9.70;94.00;;;;;;5071386;28;19980;-89
2023/01/09 12:15:24;;;;;;;;;;;9.70;93.70;;;;;;5074637;28;19946;-88
2023/01/09 12:18:01;;;;;;;;;;;9.70;93.90;;;;;;5057515;28;19951;-89
2023/01/09 12:20:43;;;;;;;;;;;9.80;93.90;;;;;;5067653;28;19970;-89
2023/01/09 12:23:15;;;;;;;;;;;9.70;93.60;;;;;;5057233;28;20398;-88
2023/01/09 12:25:56;;;;;;;;;;;9.80;93.80;;;;;;5061686;28;19947;-89
2023/01/09 12:28:40;;;;;;;;;;;9.80;93.60;;;;;;5065071;28;19941;-89
2023/01/09 12:31:13;;;;;;;;;;;9.80;93.90;;;;;;5059400;28;19953;-89
2023/01/09 12:33:48;;;;;;;;;;;9.70;93.80;;;;;;5065486;28;19947;-89
2023/01/09 12:36:40;;;;;;;;;;;9.60;93.80;;;;;;5062565;28;19952;-89
2023/01/09 12:39:05;;;;;;;;;;;9.50;94.00;;;;;;5030662;28;20069;-88
2023/01/09 12:41:30;;;;;;;;;;;9.50;94.30;;;;;;5062801;28;19954;-88
2023/01/09 12:44:05;;;;;;;;;;;9.50;94.50;;;;;;5042663;28;19948;-88
2023/01/09 12:46:39;;;;;;;;;;;9.50;94.60;;;;;;5060946;28;19942;-88
2023/01/09 12:49:14;;;;;;;;;;;9.50;94.70;;;;;;5048054;28;20028;-88
2023/01/09 12:51:47;;;;;;;;;;;9.50;94.60;;;;;;5048337;28;20487;-88
2023/01/09 12:54:15;;;;;;;;;;;9.50;94.70;;;;;;5058031;28;20405;-88
2023/01/09 12:56:46;;;;;;;;;;;9.40;94.70;;;;;;5057065;28;19946;-88
2023/01/09 12:59:29;;;;;;;;;;;9.50;94.80;;;;;;5064766;28;19951;-89
2023/01/09 13:02:18;;;;;;;;;;;9.60;94.80;;;;;;5059913;28;19962;-89
2023/01/09 13:04:53;;;;;;;;;;;9.50;94.70;;;;;;5060969;28;19962;-90
2023/01/09 13:07:44;;;;;;;;;;;9.50;94.40;;;;;;5057744;28;19999;-90
2023/01/09 13:10:25;;;;;;;;;;;9.60;94.60;;;;;;5054273;28;20522;-89
2023/01/09 13:12:51;;;;;;;;;;;9.70;94.40;;;;;;5062770;28;19975;-89
2023/01/09 13:15:19;;;;;;;;;;;9.80;93.40;;;;;;5063204;28;19964;-89
2023/01/09 13:17:47;;;;;;;;;;;9.70;93.50;;;;;;5069245;28;19996;-89
2023/01/09 13:20:21;;;;;;;;;;;9.60;93.10;;;;;;5069647;28;20069;-89
2023/01/09 13:22:51;;;;;;;;;;;9.40;93.30;;;;;;5066049;28;20008;-89
2023/01/09 13:25:25;;;;;;;;;;;9.40;93.60;;;;;;5061957;28;19941;-88
2023/01/09 13:27:55;;;;;;;;;;;9.40;93.80;;;;;;5065348;28;20032;-89
2023/01/09 13:30:27;;;;;;;;;;;9.30;94.10;;;;;;5063553;28;20035;-89
2023/01/09 13:32:59;;;;;;;;;;;9.30;94.20;;;;;;5063248;28;20401;-88
2023/01/09 13:35:25;;;;;;;;;;;9.30;94.30;;;;;;5068013;28;20394;-89
2023/01/09 13:37:52;;;;;;;;;;;9.30;94.40;;;;;;5068658;28;19941;-89
2023/01/09 13:40:17;;;;;;;;;;;9.30;94.50;;;;;;5066865;28;19949;-89
2023/01/09 13:42:45;;;;;;;;;;;9.20;94.50;;;;;;5058999;28;19948;-88
2023/01/09 13:45:16;;;;;;;;;;;9.10;94.60;;;;;;5048980;28;19993;-88
2023/01/09 13:47:42;;;;;;;;;;;9.00;94.70;;;;;;5062049;28;19946;-88
2023/01/09 13:50:08;;;;;;;;;;;9.00;94.90;;;;;;5063346;28;19943;-88
2023/01/09 13:52:37;;;;;;;;;;;9.00;95.00;;;;;;5066276;28;20051;-88
2023/01/09 13:55:15;;;;;;;;;;;9.00;95.10;;;;;;5063133;28;19940;-89
2023/01/09 13:57:44;;;;;;;;;;;9.10;95.10;;;;;;5061417;28;20037;-89
2023/01/09 14:00:13;;;;;;;;;;;9.10;95.10;;;;;;5060300;28;19968;-89
2023/01/09 14:02:39;;;;;;;;;;;9.20;95.20;;;;;;5056556;28;19979;-89
2023/01/09 14:05:23;;;;;;;;;;;9.20;95.20;;;;;;5066740;28;19947;-89
2023/01/09 14:07:50;;;;;;;;;;;9.20;95.20;;;;;;5058094;28;19947;-90
2023/01/09 14:10:22;;;;;;;;;;;9.30;95.10;;;;;;5061677;28;19943;-89
2023/01/09 14:12:49;;;;;;;;;;;9.30;95.00;;;;;;5065252;28;20403;-89
2023/01/09 14:15:23;;;;;;;;;;;9.30;95.00;;;;;;5056848;28;19964;-89
2023/01/09 14:17:57;;;;;;;;;;;9.30;95.00;;;;;;5059986;28;19960;-90
2023/01/09 14:20:25;;;;;;;;;;;9.30;95.10;;;;;;5055934;28;20016;-90
2023/01/09 14:22:55;;;;;;;;;;;9.40;95.10;;;;;;5055379;28;19952;-90
2023/01/09 14:25:23;;;;;;;;;;;9.40;95.10;;;;;;5062015;28;20013;-90
2023/01/09 14:27:54;;;;;;;;;;;9.50;95.10;;;;;;5066052;28;20131;-90
2023/01/09 14:30:26;;;;;;;;;;;9.60;95.10;;;;;;5060957;28;19941;-90
2023/01/09 14:32:55;;;;;;;;;;;9.60;94.90;;;;;;5063652;28;19949;-89
2023/01/09 14:35:31;;;;;;;;;;;9.60;94.70;;;;;;5063979;28;19978;-90
2023/01/09 14:38:05;;;;;;;;;;;9.70;94.50;;;;;;5066174;28;19945;-89
2023/01/09 14:40:32;;;;;;;;;;;9.60;94.20;;;;;;5059749;28;19963;-90
2023/01/09 14:43:01;;;;;;;;;;;9.50;94.60;;;;;;5062205;28;19945;-89
2023/01/09 14:45:29;;;;;;;;;;;9.40;94.90;;;;;;5058093;28;20437;-89
2023/01/09 14:48:00;;;;;;;;;;;9.40;95.10;;;;;;5063302;28;20150;-90
2023/01/09 14:50:33;;;;;;;;;;;9.40;95.10;;;;;;5064216;28;19949;-90